PLYK1: Cottonwood River, Plymouth, KS

                                SHEF ID:       PLYK1     COTTONWOOD R NR PLYMOUTH, KS
STATION TYPE:
Regulating: Stage = 28.00, Flow = 11886

PRECIP STAGE STAGE(2) RIV-FLOW BAT-LOAD
in ft ft cfs volt
Ccp-Rev Ccp-Rev Ccp-Rev Ccp-Rev Ccp-Rev
(America/Chicago)
11/29 00:00 0.00 6.32 ---- 870 12.44
11/29 01:00 0.00 6.31 ---- 868 12.45
11/29 02:00 0.00 6.31 ---- 868 12.45
11/29 03:00 0.03 6.30 ---- 865 12.44
11/29 04:00 0.02 6.30 ---- 865 12.44
11/29 05:00 0.00 6.30 ---- 865 12.44
11/29 06:00 0.01 6.29 ---- 862 12.44
11/29 07:00 0.02 6.29 ---- 862 12.43
11/29 08:00 0.08 6.29 ---- 862 12.43
11/29 09:00 0.14 6.34 ---- 876 12.42
11/29 10:00 0.16 6.39 ---- 889 12.43
11/29 11:00 0.04 6.45 ---- 906 12.46
11/29 12:00 0.00 6.56 ---- 936 12.80
11/29 13:00 0.01 6.87 ---- 1025 12.76
11/29 14:00 0.00 8.08 ---- 1399 12.61
11/29 15:00 0.00 9.30 ---- 1773 13.16
11/29 16:00 0.00 10.07 ---- 2028 12.80
11/29 17:00 0.00 10.42 ---- 2149 12.53
11/29 18:00 0.00 10.63 ---- 2224 12.42
11/29 19:00 0.00 10.78 ---- 2277 12.36
11/29 20:00 0.00 10.92 ---- 2328 12.34
11/29 21:00 0.00 11.01 ---- 2361 12.34
11/29 22:00 0.00 11.09 ---- 2390 12.31
11/29 23:00 0.00 11.13 ---- 2405 12.31
Data processed at Sun 30Nov2025 05:06 GMT

NOTICE: If you are parsing this page

Please convert to using our Data API. Starting January 1st, 2026 we will be migrating to: https://water.usace.army.mil with modern pages rendered in JavaScript. You will no longer be able to scrape this page! CWMSDataAPI (CDA)

Timeseries IDs (TSIDs)

TSIDs used from left to right in the data table
PLYM.Precip-Inc.Total.1Hour.1Hour.Ccp-Rev
PLYM.Stage.Inst.1Hour.0.Ccp-Rev
PLYM.Stage-Alt.Inst.1Hour.0.Ccp-Rev
PLYM.Flow.Inst.1Hour.0.Ccp-Rev
PLYM.Volt-Battery Load.Inst.1Hour.0.Ccp-Rev

                            

All information presented herein is the property of the government of the United States of America and may be revised or deleted at any time without prior notice. Dissemination of this information without the expressed written consent of the Public Affairs Office, Tulsa District U.S. Army Corps of Engineers is strictly prohibited. These data are gathered electronically and, as presented, have NOT undergone any form of quality control. These data are NOT guaranteed to be valid or correct.